M. Luther — WDC7372 — position and weather

sailwx.info

Track history (hours):
 
Tides and Currents Weather Stations Pressure Air Temp Water Temp Dewpoint Dewpoint Depression Visibility Wind Speed Wind Dir Waves Ship Positions

M. Luther

Owner: Salmon Bay Barge Line, Inc., Seattle, WA. More information available from US FCC via Universal Licensing System and Coast Guard Vessel Documentation Center.

Last reported at 2015-Jul-28 07:32 UTC. Time now 2015-Jul-28 08:24 UTC.
Position N 49°09' W 123°00'.

Length 28 m; draft 4.1 m.

Type: Tow > 200 m length. MMSI: 367070410.

Date/timePositionNaut miles runAvg speedWind from/ knotsBaromVisibWave heightAir tempDewpointWater temp
2015-Jul-28 07:32N 49°09' W 123°00'0 0.0
2015-Jul-28 06:32N 49°09' W 123°00'0 0.0
2015-Jul-28 05:29N 49°09' W 123°00'0 0.0
2015-Jul-28 04:29N 49°09' W 123°00'0 0.0
2015-Jul-28 03:29N 49°09' W 123°00'0 0.0
2015-Jul-28 02:32N 49°09' W 123°00'0 0.0
2015-Jul-28 01:29N 49°09' W 123°00'0 0.0
2015-Jul-28 00:32N 49°09' W 123°00'0 0.0
2015-Jul-27 23:32N 49°09' W 123°00'0 0.0
2015-Jul-27 22:29N 49°09' W 123°00'0 0.0
2015-Jul-27 21:23N 49°09' W 123°00'0 0.0
2015-Jul-27 20:08N 49°09' W 123°00'0 0.0
2015-Jul-27 18:07N 49°09' W 123°00'0 0.0
2015-Jul-27 14:33N 49°09' W 123°00'2 1.6
2015-Jul-27 13:33N 49°09' W 123°03'4 4.4
2015-Jul-27 12:33N 49°06' W 123°08'5 4.8
2015-Jul-27 11:33N 49°07' W 123°15'4 4.1
2015-Jul-27 10:33N 49°04' W 123°19'5 4.5
2015-Jul-27 09:33N 49°01' W 123°14'5 5.3
2015-Jul-27 08:33N 48°57' W 123°08'7 6.9
2015-Jul-27 07:33N 48°53' W 123°00'8 8.1
2015-Jul-27 06:33N 48°48' W 122°51'9 8.5
2015-Jul-27 05:33N 48°41' W 122°42'8 8.0
2015-Jul-27 04:33N 48°33' W 122°45'8 8.3
2015-Jul-27 03:32N 48°25' W 122°44'13 7.9
2015-Jul-27 01:50N 48°12' W 122°47'12 9.3
2015-Jul-27 00:33N 48°02' W 122°37'4 9.9
2015-Jul-27 00:05N 47°58' W 122°34'5 8.7
2015-Jul-26 23:33N 47°55' W 122°29'0 8.1
2015-Jul-26 23:30N 47°54' W 122°28'8 8.5
2015-Jul-26 22:33N 47°46' W 122°26'0 8.1
2015-Jul-26 22:30N 47°46' W 122°26'8 8.2
2015-Jul-26 21:33N 47°38' W 122°26'0 7.8
2015-Jul-26 21:30N 47°38' W 122°26'5 5.1
2015-Jul-26 20:33N 47°34' W 122°21'0 3.6
2015-Jul-26 20:30N 47°34' W 122°21'1 0.7
2015-Jul-26 19:26N 47°33' W 122°21'0 0.2
2015-Jul-26 19:14N 47°33' W 122°21'0 0.0
2015-Jul-26 18:32N 47°33' W 122°21'0 0.1
2015-Jul-26 18:19N 47°33' W 122°21'1 1.5
2015-Jul-26 17:34N 47°34' W 122°21'0 3.1
2015-Jul-26 17:29N 47°34' W 122°21'1 1.0
2015-Jul-26 16:31N 47°33' W 122°21'0 0.0
2015-Jul-26 16:19N 47°33' W 122°21'0 0.0
2015-Jul-26 12:49N 47°33' W 122°21'0 0.0
2015-Jul-26 12:31N 47°33' W 122°21'0 0.8
2015-Jul-26 12:28N 47°33' W 122°21'0 0.0
2015-Jul-26 11:31N 47°33' W 122°21'0 0.8
2015-Jul-26 11:28N 47°33' W 122°21'0 0.0
2015-Jul-26 10:31N 47°33' W 122°21'0 0.0
2015-Jul-26 10:28N 47°33' W 122°21'0 0.0
2015-Jul-26 09:31N 47°33' W 122°21'0 0.0
2015-Jul-26 09:28N 47°33' W 122°21'0 0.0
2015-Jul-26 08:31N 47°33' W 122°21'0 0.0
2015-Jul-26 08:28N 47°33' W 122°21'0 0.0
2015-Jul-26 07:31N 47°33' W 122°21'0 0.0
2015-Jul-26 07:28N 47°33' W 122°21'0 0.0
2015-Jul-26 06:31N 47°33' W 122°21'0 0.1
2015-Jul-26 06:28N 47°33' W 122°21'0 0.1
2015-Jul-26 05:43N 47°33' W 122°21'0 0.0
2015-Jul-26 05:31N 47°33' W 122°21'0 0.0
2015-Jul-26 04:31N 47°33' W 122°21'0 0.8
2015-Jul-26 04:28N 47°33' W 122°21'0 0.0
2015-Jul-26 03:31N 47°33' W 122°21'0 0.0
2015-Jul-26 03:28N 47°33' W 122°21'0 0.0
2015-Jul-26 02:28N 47°33' W 122°21'0 0.0
2015-Jul-26 02:28N 47°33' W 122°21'0 0.0
2015-Jul-26 01:31N 47°33' W 122°21'0 0.0
2015-Jul-26 00:43N 47°33' W 122°21'0 0.2
2015-Jul-26 00:31N 47°33' W 122°21'0 0.0
2015-Jul-26 00:28N 47°33' W 122°21'0 0.0
2015-Jul-25 23:28N 47°33' W 122°21'0 0.0
2015-Jul-25 23:28N 47°33' W 122°21'0 0.0
2015-Jul-25 22:31N 47°33' W 122°21'0 0.3
2015-Jul-25 22:22N 47°33' W 122°21'0 0.0
2015-Jul-25 21:31N 47°33' W 122°21'0 0.3
2015-Jul-25 21:22N 47°33' W 122°21'0 0.0
2015-Jul-25 20:28N 47°33' W 122°21'0 0.0
2015-Jul-25 20:22N 47°33' W 122°21'0 0.0
2015-Jul-25 19:22N 47°33' W 122°21'0 0.0
2015-Jul-25 19:22N 47°33' W 122°21'0 0.0
2015-Jul-25 18:22N 47°33' W 122°21'0 0.0
2015-Jul-25 18:22N 47°33' W 122°21'0 0.0
2015-Jul-25 17:31N 47°33' W 122°21'0 0.0
2015-Jul-25 16:28N 47°33' W 122°21'0 0.0
2015-Jul-25 13:36N 47°33' W 122°21'0 0.1
2015-Jul-25 12:51N 47°33' W 122°21'0 0.0
2015-Jul-25 10:30N 47°33' W 122°21'0 0.0
2015-Jul-25 04:21N 47°33' W 122°21'0 0.0
2015-Jul-25 03:45N 47°33' W 122°21'0 0.0
2015-Jul-25 03:33N 47°33' W 122°21'0 0.8
2015-Jul-25 03:30N 47°33' W 122°21'0 0.0
2015-Jul-25 02:33N 47°33' W 122°21'0 0.0
2015-Jul-25 02:30N 47°33' W 122°21'0 0.0
2015-Jul-25 01:33N 47°33' W 122°21'0 0.0
2015-Jul-25 01:24N 47°33' W 122°21'0 0.0
2015-Jul-25 00:33N 47°33' W 122°21'0 0.0
2015-Jul-25 00:24N 47°33' W 122°21'0 0.0
2015-Jul-24 23:33N 47°33' W 122°21'0 0.0
2015-Jul-24 23:30N 47°33' W 122°21'0 0.0
2015-Jul-24 22:30N 47°33' W 122°21'0 0.4
2015-Jul-24 22:24N 47°33' W 122°21'0 0.0
2015-Jul-24 21:33N 47°33' W 122°21'0 0.0
2015-Jul-24 21:24N 47°33' W 122°21'0 0.0
2015-Jul-24 20:27N 47°33' W 122°21'0 0.1
2015-Jul-24 19:39N 47°33' W 122°21'0 0.4
2015-Jul-24 19:33N 47°33' W 122°21'0 0.0
2015-Jul-24 19:24N 47°33' W 122°21'0 0.0
2015-Jul-24 18:30N 47°33' W 122°21'0 0.0
2015-Jul-24 17:39N 47°33' W 122°21'0 0.3
2015-Jul-24 17:30N 47°33' W 122°21'0 0.4
2015-Jul-24 17:24N 47°33' W 122°21'0 0.0
2015-Jul-24 16:33N 47°33' W 122°21'0 0.0
2015-Jul-24 15:30N 47°33' W 122°21'0 0.0
2015-Jul-24 15:24N 47°33' W 122°21'0 0.0
2015-Jul-24 14:33N 47°33' W 122°21'0 0.0
2015-Jul-24 13:24N 47°33' W 122°21'0 0.0
2015-Jul-24 13:24N 47°33' W 122°21'0 0.0
2015-Jul-24 12:30N 47°33' W 122°21'0 0.0
2015-Jul-24 12:18N 47°33' W 122°21'0 0.1
2015-Jul-24 11:33N 47°33' W 122°21'0 0.0
2015-Jul-24 11:33N 47°33' W 122°21'0 0.0
2015-Jul-24 10:33N 47°33' W 122°21'0 0.0
2015-Jul-24 10:33N 47°33' W 122°21'0 0.0
2015-Jul-24 09:33N 47°33' W 122°21'0 0.0
2015-Jul-24 09:33N 47°33' W 122°21'0 0.0
2015-Jul-24 08:33N 47°33' W 122°21'0 0.0
2015-Jul-24 08:33N 47°33' W 122°21'0 0.0
2015-Jul-24 07:18N 47°33' W 122°21'0 0.0
2015-Jul-24 06:06N 47°33' W 122°21'0 0.1
2015-Jul-24 05:24N 47°33' W 122°21'0 0.0
2015-Jul-24 04:33N 47°33' W 122°21'0 0.0
2015-Jul-24 04:33N 47°33' W 122°21'0 0.0
2015-Jul-24 03:33N 47°33' W 122°21'0 0.0
2015-Jul-24 03:33N 47°33' W 122°21'0 0.0
2015-Jul-24 02:33N 47°33' W 122°21'0 0.0
2015-Jul-24 02:33N 47°33' W 122°21'0 0.0
2015-Jul-24 01:29N 47°33' W 122°21'0 0.0
2015-Jul-24 00:23N 47°33' W 122°21'0 0.0
2015-Jul-23 22:56N 47°33' W 122°21'0 0.0
2015-Jul-23 22:26N 47°33' W 122°21'0 0.0
2015-Jul-23 22:26N 47°33' W 122°21'0 0.0
2015-Jul-23 21:29N 47°33' W 122°21'0 0.0
2015-Jul-23 21:29N 47°33' W 122°21'0 0.0
2015-Jul-23 20:29N 47°33' W 122°21'0 0.1
2015-Jul-23 19:53N 47°33' W 122°21'0 0.1
2015-Jul-23 19:26N 47°33' W 122°21'0 0.1
2015-Jul-23 19:08N 47°33' W 122°21'0 0.0
2015-Jul-23 18:32N 47°33' W 122°21'0 0.0
2015-Jul-23 18:32N 47°33' W 122°21'0 0.0
2015-Jul-23 16:32N 47°33' W 122°21'0 0.0
2015-Jul-23 15:56N 47°33' W 122°21'0 0.0
2015-Jul-23 15:32N 47°33' W 122°21'0 0.0
2015-Jul-23 15:11N 47°33' W 122°21'0 0.1
2015-Jul-23 14:26N 47°33' W 122°21'0 0.0
2015-Jul-23 14:26N 47°33' W 122°21'0 0.0
2015-Jul-23 13:26N 47°33' W 122°21'0 0.0
2015-Jul-23 13:26N 47°33' W 122°21'0 0.0
2015-Jul-23 11:53N 47°33' W 122°21'0 0.1
2015-Jul-23 11:23N 47°33' W 122°21'0 0.0
2015-Jul-23 11:23N 47°33' W 122°21'0 0.0
2015-Jul-23 10:29N 47°33' W 122°21'0 0.1
2015-Jul-23 10:08N 47°33' W 122°21'0 0.0
2015-Jul-23 09:26N 47°33' W 122°21'0 0.0
2015-Jul-23 08:23N 47°33' W 122°21'0 0.0
2015-Jul-23 07:05N 47°33' W 122°21'0 0.0
2015-Jul-23 06:47N 47°33' W 122°21'0 0.2
2015-Jul-23 06:32N 47°33' W 122°21'0 0.0
2015-Jul-23 06:32N 47°33' W 122°21'0 0.1
2015-Jul-23 06:02N 47°33' W 122°21'0 0.0
2015-Jul-23 03:56N 47°33' W 122°21'0 0.0
2015-Jul-23 02:20N 47°33' W 122°21'0 0.0
2015-Jul-23 02:11N 47°33' W 122°21'0 0.0
2015-Jul-23 01:32N 47°33' W 122°21'0 0.4
2015-Jul-23 01:26N 47°33' W 122°21'0 0.0
2015-Jul-23 00:32N 47°33' W 122°21'0 0.0
2015-Jul-23 00:26N 47°33' W 122°21'0 0.0
2015-Jul-22 23:32N 47°33' W 122°21'0 0.0
2015-Jul-22 22:32N 47°33' W 122°21'0 0.1
2015-Jul-22 21:59N 47°33' W 122°21'0 0.0
2015-Jul-22 21:32N 47°33' W 122°21'0 0.0
2015-Jul-22 21:29N 47°33' W 122°21'0 0.0
2015-Jul-22 20:32N 47°33' W 122°21'0 0.0
2015-Jul-22 20:29N 47°33' W 122°21'0 0.0
2015-Jul-22 19:29N 47°33' W 122°21'0 0.0
2015-Jul-22 19:29N 47°33' W 122°21'0 0.0
2015-Jul-22 18:11N 47°33' W 122°21'0 0.0
2015-Jul-22 17:38N 47°33' W 122°21'0 0.0
2015-Jul-22 17:29N 47°33' W 122°21'0 0.0
2015-Jul-22 17:23N 47°33' W 122°21'0 0.0
2015-Jul-22 16:26N 47°33' W 122°21'0 0.1
2015-Jul-22 16:23N 47°33' W 122°21'0 0.0
2015-Jul-22 15:20N 47°33' W 122°21'0 0.0
2015-Jul-22 14:19N 47°33' W 122°21'0 0.1
2015-Jul-22 14:16N 47°33' W 122°21'0 0.0
2015-Jul-22 12:28N 47°33' W 122°21'0 0.0
2015-Jul-22 11:40N 47°33' W 122°21'0 0.0
2015-Jul-22 11:25N 47°33' W 122°21'0 0.0
2015-Jul-22 10:07N 47°33' W 122°21'0 0.0
2015-Jul-22 08:34N 47°33' W 122°21'0 0.0
2015-Jul-22 04:31N 47°33' W 122°21'0 0.1
2015-Jul-22 04:28N 47°33' W 122°21'0 0.0
2015-Jul-22 03:31N 47°33' W 122°21'0 0.0
2015-Jul-22 03:28N 47°33' W 122°21'0 0.0
2015-Jul-22 02:31N 47°33' W 122°21'0 0.0
2015-Jul-22 02:28N 47°33' W 122°21'0 0.0
2015-Jul-22 01:31N 47°33' W 122°21'0 0.1
2015-Jul-22 01:28N 47°33' W 122°21'0 0.0
2015-Jul-22 00:28N 47°33' W 122°21'0 0.8
2015-Jul-22 00:25N 47°33' W 122°21'0 0.0
2015-Jul-21 23:22N 47°33' W 122°21'0 0.0
2015-Jul-21 22:34N 47°33' W 122°21'0 0.0
2015-Jul-21 21:30N 47°33' W 122°21'0 0.1
2015-Jul-21 21:27N 47°33' W 122°21'0 0.0
2015-Jul-21 20:30N 47°33' W 122°21'0 0.8
2015-Jul-21 20:27N 47°33' W 122°21'0 0.0
2015-Jul-21 19:27N 47°33' W 122°21'0 0.0
2015-Jul-21 19:27N 47°33' W 122°21'0 0.0
2015-Jul-21 16:51N 47°33' W 122°21'0 0.0
2015-Jul-21 16:21N 47°33' W 122°21'0 0.0
2015-Jul-21 14:21N 47°33' W 122°21'0 0.0
2015-Jul-21 06:44N 47°33' W 122°21'0 0.0
2015-Jul-21 06:29N 47°33' W 122°21'0 0.0
2015-Jul-21 04:08N 47°33' W 122°21'0 0.0
2015-Jul-21 03:23N 47°33' W 122°21'0 0.0
2015-Jul-21 01:30N 47°33' W 122°21'0 0.0
2015-Jul-21 01:23N 47°33' W 122°21'0 0.0
2015-Jul-21 00:32N 47°33' W 122°21'0 0.3
2015-Jul-21 00:23N 47°33' W 122°21'0 0.0
2015-Jul-20 23:29N 47°33' W 122°21'0 0.0
2015-Jul-20 23:23N 47°33' W 122°21'0 0.0
2015-Jul-20 22:17N 47°33' W 122°21'0 0.0
2015-Jul-20 21:32N 47°33' W 122°21'0 0.0
2015-Jul-20 21:14N 47°33' W 122°21'0 0.0
2015-Jul-20 20:17N 47°33' W 122°21'0 0.0
2015-Jul-20 20:17N 47°33' W 122°21'0 0.0
2015-Jul-20 19:20N 47°33' W 122°21'0 0.0
2015-Jul-20 18:41N 47°33' W 122°21'0 0.0
2015-Jul-20 18:32N 47°33' W 122°21'0 0.0
2015-Jul-20 17:41N 47°33' W 122°21'0 0.0
2015-Jul-20 17:29N 47°33' W 122°21'0 0.2
2015-Jul-20 17:26N 47°33' W 122°21'0 0.0
2015-Jul-20 16:29N 47°33' W 122°21'0 0.0
2015-Jul-20 15:26N 47°33' W 122°21'0 0.0
2015-Jul-20 14:59N 47°33' W 122°21'0 0.0
2015-Jul-20 14:05N 47°33' W 122°21'0 0.0
2015-Jul-20 13:44N 47°33' W 122°21'0 0.2
2015-Jul-20 13:32N 47°33' W 122°21'0 0.8
2015-Jul-20 13:29N 47°33' W 122°21'0 0.0
2015-Jul-20 12:14N 47°33' W 122°21'0 0.0
2015-Jul-20 10:26N 47°33' W 122°21'0 0.0
2015-Jul-20 09:23N 47°33' W 122°21'0 0.0
2015-Jul-20 09:02N 47°33' W 122°21'0 0.0
2015-Jul-20 08:20N 47°33' W 122°21'0 0.0
2015-Jul-20 07:32N 47°33' W 122°21'0 0.0
2015-Jul-20 05:35N 47°33' W 122°21'0 0.0
2015-Jul-19 23:58N 47°33' W 122°21'1 2.4
2015-Jul-19 23:33N 47°34' W 122°21'0 6.2
2015-Jul-19 23:29N 47°35' W 122°22'4 4.6
2015-Jul-19 22:34N 47°38' W 122°26'0 5.5
2015-Jul-19 22:33N 47°38' W 122°26'6 6.4
2015-Jul-19 21:33N 47°44' W 122°27'0 7.2
2015-Jul-19 21:33N 47°44' W 122°27'7 7.1
2015-Jul-19 20:33N 47°51' W 122°29'0 9.3
2015-Jul-19 20:33N 47°51' W 122°29'6 5.8
2015-Jul-19 19:34N 47°56' W 122°33'5 4.7
2015-Jul-19 18:31N 48°00' W 122°38'15 4.5
2015-Jul-19 15:06N 48°13' W 122°49'5 7.9
2015-Jul-19 14:27N 48°18' W 122°47'7 7.7
2015-Jul-19 13:31N 48°25' W 122°45'2 7.9
2015-Jul-19 13:18N 48°27' W 122°45'6 7.6
2015-Jul-19 12:33N 48°33' W 122°45'1 7.3
2015-Jul-19 12:22N 48°34' W 122°45'6 7.0
2015-Jul-19 11:33N 48°40' W 122°44'7 7.3
2015-Jul-19 10:33N 48°46' W 122°50'9 9.2
2015-Jul-19 09:33N 48°51' W 123°01'8 7.8
2015-Jul-19 08:33N 48°56' W 123°11'8 8.0
2015-Jul-19 07:33N 49°01' W 123°20'6 6.1
2015-Jul-19 06:33N 49°07' W 123°16'5 5.0
2015-Jul-19 05:33N 49°06' W 123°09'5 5.0
2015-Jul-19 04:34N 49°09' W 123°02'1 0.3
2015-Jul-19 00:32N 49°09' W 123°00'0 0.0
2015-Jul-18 23:32N 49°09' W 123°00'0 0.0
2015-Jul-18 22:32N 49°09' W 123°00'0 0.0
2015-Jul-18 21:32N 49°09' W 123°00'0 0.0
2015-Jul-18 20:32N 49°09' W 123°00'0 0.0
2015-Jul-18 19:32N 49°09' W 123°00'0 0.0
2015-Jul-18 18:32N 49°09' W 123°00'0 0.0
2015-Jul-18 17:26N 49°09' W 123°00'0 0.0
2015-Jul-18 16:32N 49°09' W 123°00'0 0.0
2015-Jul-18 15:32N 49°09' W 123°00'0 0.0
2015-Jul-18 14:32N 49°09' W 123°00'0 0.0
2015-Jul-18 13:32N 49°09' W 123°00'0 0.0
2015-Jul-18 12:32N 49°09' W 123°00'0 0.0
2015-Jul-18 11:32N 49°09' W 123°00'0 0.0
2015-Jul-18 10:29N 49°09' W 123°00'0 0.0
2015-Jul-18 09:32N 49°09' W 123°00'0 0.0
2015-Jul-18 08:32N 49°09' W 123°00'  
Track history (hours):
 
Tides and Currents Weather Stations Pressure Air Temp Water Temp Dewpoint Dewpoint Depression Visibility Wind Speed Wind Dir Waves Ship Positions

M. Luther

Owner: Salmon Bay Barge Line, Inc., Seattle, WA. More information available from US FCC via Universal Licensing System and Coast Guard Vessel Documentation Center.

Last reported at 2015-Jul-28 07:32 UTC. Time now 2015-Jul-28 08:24 UTC.
Position N 49°09' W 123°00'.

Length 28 m; draft 4.1 m.

Type: Tow > 200 m length. MMSI: 367070410.

Date/timePositionNaut miles runAvg speedWind from/ knotsBaromVisibWave heightAir tempDewpointWater temp
2015-Jul-28 07:32N 49°09' W 123°00'0 0.0
2015-Jul-28 06:32N 49°09' W 123°00'0 0.0
2015-Jul-28 05:29N 49°09' W 123°00'0 0.0
2015-Jul-28 04:29N 49°09' W 123°00'0 0.0
2015-Jul-28 03:29N 49°09' W 123°00'0 0.0
2015-Jul-28 02:32N 49°09' W 123°00'0 0.0
2015-Jul-28 01:29N 49°09' W 123°00'0 0.0
2015-Jul-28 00:32N 49°09' W 123°00'0 0.0
2015-Jul-27 23:32N 49°09' W 123°00'0 0.0
2015-Jul-27 22:29N 49°09' W 123°00'0 0.0
2015-Jul-27 21:23N 49°09' W 123°00'0 0.0
2015-Jul-27 20:08N 49°09' W 123°00'0 0.0
2015-Jul-27 18:07N 49°09' W 123°00'0 0.0
2015-Jul-27 14:33N 49°09' W 123°00'2 1.6
2015-Jul-27 13:33N 49°09' W 123°03'4 4.4
2015-Jul-27 12:33N 49°06' W 123°08'5 4.8
2015-Jul-27 11:33N 49°07' W 123°15'4 4.1
2015-Jul-27 10:33N 49°04' W 123°19'5 4.5
2015-Jul-27 09:33N 49°01' W 123°14'5 5.3
2015-Jul-27 08:33N 48°57' W 123°08'7 6.9
2015-Jul-27 07:33N 48°53' W 123°00'8 8.1
2015-Jul-27 06:33N 48°48' W 122°51'9 8.5
2015-Jul-27 05:33N 48°41' W 122°42'8 8.0
2015-Jul-27 04:33N 48°33' W 122°45'8 8.3
2015-Jul-27 03:32N 48°25' W 122°44'13 7.9
2015-Jul-27 01:50N 48°12' W 122°47'12 9.3
2015-Jul-27 00:33N 48°02' W 122°37'4 9.9
2015-Jul-27 00:05N 47°58' W 122°34'5 8.7
2015-Jul-26 23:33N 47°55' W 122°29'0 8.1
2015-Jul-26 23:30N 47°54' W 122°28'8 8.5
2015-Jul-26 22:33N 47°46' W 122°26'0 8.1
2015-Jul-26 22:30N 47°46' W 122°26'8 8.2
2015-Jul-26 21:33N 47°38' W 122°26'0 7.8
2015-Jul-26 21:30N 47°38' W 122°26'5 5.1
2015-Jul-26 20:33N 47°34' W 122°21'0 3.6
2015-Jul-26 20:30N 47°34' W 122°21'1 0.7
2015-Jul-26 19:26N 47°33' W 122°21'0 0.2
2015-Jul-26 19:14N 47°33' W 122°21'0 0.0
2015-Jul-26 18:32N 47°33' W 122°21'0 0.1
2015-Jul-26 18:19N 47°33' W 122°21'1 1.5
2015-Jul-26 17:34N 47°34' W 122°21'0 3.1
2015-Jul-26 17:29N 47°34' W 122°21'1 1.0
2015-Jul-26 16:31N 47°33' W 122°21'0 0.0
2015-Jul-26 16:19N 47°33' W 122°21'0 0.0
2015-Jul-26 12:49N 47°33' W 122°21'0 0.0
2015-Jul-26 12:31N 47°33' W 122°21'0 0.8
2015-Jul-26 12:28N 47°33' W 122°21'0 0.0
2015-Jul-26 11:31N 47°33' W 122°21'0 0.8
2015-Jul-26 11:28N 47°33' W 122°21'0 0.0
2015-Jul-26 10:31N 47°33' W 122°21'0 0.0
2015-Jul-26 10:28N 47°33' W 122°21'0 0.0
2015-Jul-26 09:31N 47°33' W 122°21'0 0.0
2015-Jul-26 09:28N 47°33' W 122°21'0 0.0
2015-Jul-26 08:31N 47°33' W 122°21'0 0.0
2015-Jul-26 08:28N 47°33' W 122°21'0 0.0
2015-Jul-26 07:31N 47°33' W 122°21'0 0.0
2015-Jul-26 07:28N 47°33' W 122°21'0 0.0
2015-Jul-26 06:31N 47°33' W 122°21'0 0.1
2015-Jul-26 06:28N 47°33' W 122°21'0 0.1
2015-Jul-26 05:43N 47°33' W 122°21'0 0.0
2015-Jul-26 05:31N 47°33' W 122°21'0 0.0
2015-Jul-26 04:31N 47°33' W 122°21'0 0.8
2015-Jul-26 04:28N 47°33' W 122°21'0 0.0
2015-Jul-26 03:31N 47°33' W 122°21'0 0.0
2015-Jul-26 03:28N 47°33' W 122°21'0 0.0
2015-Jul-26 02:28N 47°33' W 122°21'0 0.0
2015-Jul-26 02:28N 47°33' W 122°21'0 0.0
2015-Jul-26 01:31N 47°33' W 122°21'0 0.0
2015-Jul-26 00:43N 47°33' W 122°21'0 0.2
2015-Jul-26 00:31N 47°33' W 122°21'0 0.0
2015-Jul-26 00:28N 47°33' W 122°21'0 0.0
2015-Jul-25 23:28N 47°33' W 122°21'0 0.0
2015-Jul-25 23:28N 47°33' W 122°21'0 0.0
2015-Jul-25 22:31N 47°33' W 122°21'0 0.3
2015-Jul-25 22:22N 47°33' W 122°21'0 0.0
2015-Jul-25 21:31N 47°33' W 122°21'0 0.3
2015-Jul-25 21:22N 47°33' W 122°21'0 0.0
2015-Jul-25 20:28N 47°33' W 122°21'0 0.0
2015-Jul-25 20:22N 47°33' W 122°21'0 0.0
2015-Jul-25 19:22N 47°33' W 122°21'0 0.0
2015-Jul-25 19:22N 47°33' W 122°21'0 0.0
2015-Jul-25 18:22N 47°33' W 122°21'0 0.0
2015-Jul-25 18:22N 47°33' W 122°21'0 0.0
2015-Jul-25 17:31N 47°33' W 122°21'0 0.0
2015-Jul-25 16:28N 47°33' W 122°21'0 0.0
2015-Jul-25 13:36N 47°33' W 122°21'0 0.1
2015-Jul-25 12:51N 47°33' W 122°21'0 0.0
2015-Jul-25 10:30N 47°33' W 122°21'0 0.0
2015-Jul-25 04:21N 47°33' W 122°21'0 0.0
2015-Jul-25 03:45N 47°33' W 122°21'0 0.0
2015-Jul-25 03:33N 47°33' W 122°21'0 0.8
2015-Jul-25 03:30N 47°33' W 122°21'0 0.0
2015-Jul-25 02:33N 47°33' W 122°21'0 0.0
2015-Jul-25 02:30N 47°33' W 122°21'0 0.0
2015-Jul-25 01:33N 47°33' W 122°21'0 0.0
2015-Jul-25 01:24N 47°33' W 122°21'0 0.0
2015-Jul-25 00:33N 47°33' W 122°21'0 0.0
2015-Jul-25 00:24N 47°33' W 122°21'0 0.0
2015-Jul-24 23:33N 47°33' W 122°21'0 0.0
2015-Jul-24 23:30N 47°33' W 122°21'0 0.0
2015-Jul-24 22:30N 47°33' W 122°21'0 0.4
2015-Jul-24 22:24N 47°33' W 122°21'0 0.0
2015-Jul-24 21:33N 47°33' W 122°21'0 0.0
2015-Jul-24 21:24N 47°33' W 122°21'0 0.0
2015-Jul-24 20:27N 47°33' W 122°21'0 0.1
2015-Jul-24 19:39N 47°33' W 122°21'0 0.4
2015-Jul-24 19:33N 47°33' W 122°21'0 0.0
2015-Jul-24 19:24N 47°33' W 122°21'0 0.0
2015-Jul-24 18:30N 47°33' W 122°21'0 0.0
2015-Jul-24 17:39N 47°33' W 122°21'0 0.3
2015-Jul-24 17:30N 47°33' W 122°21'0 0.4
2015-Jul-24 17:24N 47°33' W 122°21'0 0.0
2015-Jul-24 16:33N 47°33' W 122°21'0 0.0
2015-Jul-24 15:30N 47°33' W 122°21'0 0.0
2015-Jul-24 15:24N 47°33' W 122°21'0 0.0
2015-Jul-24 14:33N 47°33' W 122°21'0 0.0
2015-Jul-24 13:24N 47°33' W 122°21'0 0.0
2015-Jul-24 13:24N 47°33' W 122°21'0 0.0
2015-Jul-24 12:30N 47°33' W 122°21'0 0.0
2015-Jul-24 12:18N 47°33' W 122°21'0 0.1
2015-Jul-24 11:33N 47°33' W 122°21'0 0.0
2015-Jul-24 11:33N 47°33' W 122°21'0 0.0
2015-Jul-24 10:33N 47°33' W 122°21'0 0.0
2015-Jul-24 10:33N 47°33' W 122°21'0 0.0
2015-Jul-24 09:33N 47°33' W 122°21'0 0.0
2015-Jul-24 09:33N 47°33' W 122°21'0 0.0
2015-Jul-24 08:33N 47°33' W 122°21'0 0.0
2015-Jul-24 08:33N 47°33' W 122°21'0 0.0
2015-Jul-24 07:18N 47°33' W 122°21'0 0.0
2015-Jul-24 06:06N 47°33' W 122°21'0 0.1
2015-Jul-24 05:24N 47°33' W 122°21'0 0.0
2015-Jul-24 04:33N 47°33' W 122°21'0 0.0
2015-Jul-24 04:33N 47°33' W 122°21'0 0.0
2015-Jul-24 03:33N 47°33' W 122°21'0 0.0
2015-Jul-24 03:33N 47°33' W 122°21'0 0.0
2015-Jul-24 02:33N 47°33' W 122°21'0 0.0
2015-Jul-24 02:33N 47°33' W 122°21'0 0.0
2015-Jul-24 01:29N 47°33' W 122°21'0 0.0
2015-Jul-24 00:23N 47°33' W 122°21'0 0.0
2015-Jul-23 22:56N 47°33' W 122°21'0 0.0
2015-Jul-23 22:26N 47°33' W 122°21'0 0.0
2015-Jul-23 22:26N 47°33' W 122°21'0 0.0
2015-Jul-23 21:29N 47°33' W 122°21'0 0.0
2015-Jul-23 21:29N 47°33' W 122°21'0 0.0
2015-Jul-23 20:29N 47°33' W 122°21'0 0.1
2015-Jul-23 19:53N 47°33' W 122°21'0 0.1
2015-Jul-23 19:26N 47°33' W 122°21'0 0.1
2015-Jul-23 19:08N 47°33' W 122°21'0 0.0
2015-Jul-23 18:32N 47°33' W 122°21'0 0.0
2015-Jul-23 18:32N 47°33' W 122°21'0 0.0
2015-Jul-23 16:32N 47°33' W 122°21'0 0.0
2015-Jul-23 15:56N 47°33' W 122°21'0 0.0
2015-Jul-23 15:32N 47°33' W 122°21'0 0.0
2015-Jul-23 15:11N 47°33' W 122°21'0 0.1
2015-Jul-23 14:26N 47°33' W 122°21'0 0.0
2015-Jul-23 14:26N 47°33' W 122°21'0 0.0
2015-Jul-23 13:26N 47°33' W 122°21'0 0.0
2015-Jul-23 13:26N 47°33' W 122°21'0 0.0
2015-Jul-23 11:53N 47°33' W 122°21'0 0.1
2015-Jul-23 11:23N 47°33' W 122°21'0 0.0
2015-Jul-23 11:23N 47°33' W 122°21'0 0.0
2015-Jul-23 10:29N 47°33' W 122°21'0 0.1
2015-Jul-23 10:08N 47°33' W 122°21'0 0.0
2015-Jul-23 09:26N 47°33' W 122°21'0 0.0
2015-Jul-23 08:23N 47°33' W 122°21'0 0.0
2015-Jul-23 07:05N 47°33' W 122°21'0 0.0
2015-Jul-23 06:47N 47°33' W 122°21'0 0.2
2015-Jul-23 06:32N 47°33' W 122°21'0 0.0
2015-Jul-23 06:32N 47°33' W 122°21'0 0.1
2015-Jul-23 06:02N 47°33' W 122°21'0 0.0
2015-Jul-23 03:56N 47°33' W 122°21'0 0.0
2015-Jul-23 02:20N 47°33' W 122°21'0 0.0
2015-Jul-23 02:11N 47°33' W 122°21'0 0.0
2015-Jul-23 01:32N 47°33' W 122°21'0 0.4
2015-Jul-23 01:26N 47°33' W 122°21'0 0.0
2015-Jul-23 00:32N 47°33' W 122°21'0 0.0
2015-Jul-23 00:26N 47°33' W 122°21'0 0.0
2015-Jul-22 23:32N 47°33' W 122°21'0 0.0
2015-Jul-22 22:32N 47°33' W 122°21'0 0.1
2015-Jul-22 21:59N 47°33' W 122°21'0 0.0
2015-Jul-22 21:32N 47°33' W 122°21'0 0.0
2015-Jul-22 21:29N 47°33' W 122°21'0 0.0
2015-Jul-22 20:32N 47°33' W 122°21'0 0.0
2015-Jul-22 20:29N 47°33' W 122°21'0 0.0
2015-Jul-22 19:29N 47°33' W 122°21'0 0.0
2015-Jul-22 19:29N 47°33' W 122°21'0 0.0
2015-Jul-22 18:11N 47°33' W 122°21'0 0.0
2015-Jul-22 17:38N 47°33' W 122°21'0 0.0
2015-Jul-22 17:29N 47°33' W 122°21'0 0.0
2015-Jul-22 17:23N 47°33' W 122°21'0 0.0
2015-Jul-22 16:26N 47°33' W 122°21'0 0.1
2015-Jul-22 16:23N 47°33' W 122°21'0 0.0
2015-Jul-22 15:20N 47°33' W 122°21'0 0.0
2015-Jul-22 14:19N 47°33' W 122°21'0 0.1
2015-Jul-22 14:16N 47°33' W 122°21'0 0.0
2015-Jul-22 12:28N 47°33' W 122°21'0 0.0
2015-Jul-22 11:40N 47°33' W 122°21'0 0.0
2015-Jul-22 11:25N 47°33' W 122°21'0 0.0
2015-Jul-22 10:07N 47°33' W 122°21'0 0.0
2015-Jul-22 08:34N 47°33' W 122°21'0 0.0
2015-Jul-22 04:31N 47°33' W 122°21'0 0.1
2015-Jul-22 04:28N 47°33' W 122°21'0 0.0
2015-Jul-22 03:31N 47°33' W 122°21'0 0.0
2015-Jul-22 03:28N 47°33' W 122°21'0 0.0
2015-Jul-22 02:31N 47°33' W 122°21'0 0.0
2015-Jul-22 02:28N 47°33' W 122°21'0 0.0
2015-Jul-22 01:31N 47°33' W 122°21'0 0.1
2015-Jul-22 01:28N 47°33' W 122°21'0 0.0
2015-Jul-22 00:28N 47°33' W 122°21'0 0.8
2015-Jul-22 00:25N 47°33' W 122°21'0 0.0
2015-Jul-21 23:22N 47°33' W 122°21'0 0.0
2015-Jul-21 22:34N 47°33' W 122°21'0 0.0
2015-Jul-21 21:30N 47°33' W 122°21'0 0.1
2015-Jul-21 21:27N 47°33' W 122°21'0 0.0
2015-Jul-21 20:30N 47°33' W 122°21'0 0.8
2015-Jul-21 20:27N 47°33' W 122°21'0 0.0
2015-Jul-21 19:27N 47°33' W 122°21'0 0.0
2015-Jul-21 19:27N 47°33' W 122°21'0 0.0
2015-Jul-21 16:51N 47°33' W 122°21'0 0.0
2015-Jul-21 16:21N 47°33' W 122°21'0 0.0
2015-Jul-21 14:21N 47°33' W 122°21'0 0.0
2015-Jul-21 06:44N 47°33' W 122°21'0 0.0
2015-Jul-21 06:29N 47°33' W 122°21'0 0.0
2015-Jul-21 04:08N 47°33' W 122°21'0 0.0
2015-Jul-21 03:23N 47°33' W 122°21'0 0.0
2015-Jul-21 01:30N 47°33' W 122°21'0 0.0
2015-Jul-21 01:23N 47°33' W 122°21'0 0.0
2015-Jul-21 00:32N 47°33' W 122°21'0 0.3
2015-Jul-21 00:23N 47°33' W 122°21'0 0.0
2015-Jul-20 23:29N 47°33' W 122°21'0 0.0
2015-Jul-20 23:23N 47°33' W 122°21'0 0.0
2015-Jul-20 22:17N 47°33' W 122°21'0 0.0
2015-Jul-20 21:32N 47°33' W 122°21'0 0.0
2015-Jul-20 21:14N 47°33' W 122°21'0 0.0
2015-Jul-20 20:17N 47°33' W 122°21'0 0.0
2015-Jul-20 20:17N 47°33' W 122°21'0 0.0
2015-Jul-20 19:20N 47°33' W 122°21'0 0.0
2015-Jul-20 18:41N 47°33' W 122°21'0 0.0
2015-Jul-20 18:32N 47°33' W 122°21'0 0.0
2015-Jul-20 17:41N 47°33' W 122°21'0 0.0
2015-Jul-20 17:29N 47°33' W 122°21'0 0.2
2015-Jul-20 17:26N 47°33' W 122°21'0 0.0
2015-Jul-20 16:29N 47°33' W 122°21'0 0.0
2015-Jul-20 15:26N 47°33' W 122°21'0 0.0
2015-Jul-20 14:59N 47°33' W 122°21'0 0.0
2015-Jul-20 14:05N 47°33' W 122°21'0 0.0
2015-Jul-20 13:44N 47°33' W 122°21'0 0.2
2015-Jul-20 13:32N 47°33' W 122°21'0 0.8
2015-Jul-20 13:29N 47°33' W 122°21'0 0.0
2015-Jul-20 12:14N 47°33' W 122°21'0 0.0
2015-Jul-20 10:26N 47°33' W 122°21'0 0.0
2015-Jul-20 09:23N 47°33' W 122°21'0 0.0
2015-Jul-20 09:02N 47°33' W 122°21'0 0.0
2015-Jul-20 08:20N 47°33' W 122°21'0 0.0
2015-Jul-20 07:32N 47°33' W 122°21'0 0.0
2015-Jul-20 05:35N 47°33' W 122°21'0 0.0
2015-Jul-19 23:58N 47°33' W 122°21'1 2.4
2015-Jul-19 23:33N 47°34' W 122°21'0 6.2
2015-Jul-19 23:29N 47°35' W 122°22'4 4.6
2015-Jul-19 22:34N 47°38' W 122°26'0 5.5
2015-Jul-19 22:33N 47°38' W 122°26'6 6.4
2015-Jul-19 21:33N 47°44' W 122°27'0 7.2
2015-Jul-19 21:33N 47°44' W 122°27'7 7.1
2015-Jul-19 20:33N 47°51' W 122°29'0 9.3
2015-Jul-19 20:33N 47°51' W 122°29'6 5.8
2015-Jul-19 19:34N 47°56' W 122°33'5 4.7
2015-Jul-19 18:31N 48°00' W 122°38'15 4.5
2015-Jul-19 15:06N 48°13' W 122°49'5 7.9
2015-Jul-19 14:27N 48°18' W 122°47'7 7.7
2015-Jul-19 13:31N 48°25' W 122°45'2 7.9
2015-Jul-19 13:18N 48°27' W 122°45'6 7.6
2015-Jul-19 12:33N 48°33' W 122°45'1 7.3
2015-Jul-19 12:22N 48°34' W 122°45'6 7.0
2015-Jul-19 11:33N 48°40' W 122°44'7 7.3
2015-Jul-19 10:33N 48°46' W 122°50'9 9.2
2015-Jul-19 09:33N 48°51' W 123°01'8 7.8
2015-Jul-19 08:33N 48°56' W 123°11'8 8.0
2015-Jul-19 07:33N 49°01' W 123°20'6 6.1
2015-Jul-19 06:33N 49°07' W 123°16'5 5.0
2015-Jul-19 05:33N 49°06' W 123°09'5 5.0
2015-Jul-19 04:34N 49°09' W 123°02'1 0.3
2015-Jul-19 00:32N 49°09' W 123°00'0 0.0
2015-Jul-18 23:32N 49°09' W 123°00'0 0.0
2015-Jul-18 22:32N 49°09' W 123°00'0 0.0
2015-Jul-18 21:32N 49°09' W 123°00'0 0.0
2015-Jul-18 20:32N 49°09' W 123°00'0 0.0
2015-Jul-18 19:32N 49°09' W 123°00'0 0.0
2015-Jul-18 18:32N 49°09' W 123°00'0 0.0
2015-Jul-18 17:26N 49°09' W 123°00'0 0.0
2015-Jul-18 16:32N 49°09' W 123°00'0 0.0
2015-Jul-18 15:32N 49°09' W 123°00'0 0.0
2015-Jul-18 14:32N 49°09' W 123°00'0 0.0
2015-Jul-18 13:32N 49°09' W 123°00'0 0.0
2015-Jul-18 12:32N 49°09' W 123°00'0 0.0
2015-Jul-18 11:32N 49°09' W 123°00'0 0.0
2015-Jul-18 10:29N 49°09' W 123°00'0 0.0
2015-Jul-18 09:32N 49°09' W 123°00'0 0.0
2015-Jul-18 08:32N 49°09' W 123°00'  

Dump ship's entire track history